createdAt,value
2023-04-08T00:00:45.000Z,48579.53
2023-04-08T00:03:11.547Z,48585.41
2023-04-08T00:05:38.293Z,48593.25
2023-04-08T00:08:05.601Z,48585.41
2023-04-08T00:10:32.014Z,48585.41
2023-04-08T00:12:58.397Z,48601.06
2023-04-08T00:15:24.798Z,48599.13
2023-04-08T00:17:51.351Z,48608.91
2023-04-08T00:20:17.821Z,48575.63
2023-04-08T00:22:44.201Z,48593.25
2023-04-08T00:25:10.779Z,48587.38
2023-04-08T00:27:37.185Z,48577.56
2023-04-08T00:30:03.977Z,48561.91
2023-04-08T00:32:30.387Z,48589.31
2023-04-08T00:34:56.826Z,48585.41
2023-04-08T00:37:23.562Z,48554.06
2023-04-08T00:39:49.915Z,48569.72
2023-04-08T00:42:17.675Z,48573.66
2023-04-08T00:44:44.088Z,48597.16
2023-04-08T00:47:14.754Z,48583.44
2023-04-08T00:49:41.917Z,48575.63
2023-04-08T00:52:08.427Z,48575.63
2023-04-08T00:54:36.690Z,48554.06
2023-04-08T00:57:04.615Z,48573.66
2023-04-08T00:59:31.896Z,48573.66
2023-04-08T01:02:15.651Z,48567.78
2023-04-08T01:04:55.927Z,48587.38
2023-04-08T01:07:27.118Z,48601.06
2023-04-08T01:09:57.264Z,48589.31
2023-04-08T01:12:29.850Z,48585.41
2023-04-08T01:15:04.754Z,48577.56
2023-04-08T01:17:32.684Z,48585.41
2023-04-08T01:20:01.677Z,48585.41
2023-04-08T01:22:43.808Z,48589.31
2023-04-08T01:25:19.236Z,48569.72
2023-04-08T01:27:48.377Z,48587.38
2023-04-08T01:30:17.375Z,48565.81
2023-04-08T01:32:45.251Z,48595.19
2023-04-08T01:35:12.255Z,48577.56
2023-04-08T01:37:40.075Z,48589.31
2023-04-08T01:40:08.906Z,48581.50
2023-04-08T01:42:36.720Z,48587.38
2023-04-08T01:45:04.170Z,48581.50
2023-04-08T01:47:31.494Z,48544.28
2023-04-08T01:49:59.764Z,48573.66
2023-04-08T01:52:28.589Z,48573.66
2023-04-08T01:54:55.055Z,48565.81
2023-04-08T01:57:24.607Z,48581.50
2023-04-08T01:59:53.504Z,48593.25
2023-04-08T02:02:26.566Z,48556.03
2023-04-08T02:04:55.926Z,48581.50
2023-04-08T02:07:22.347Z,48579.53
2023-04-08T02:09:48.710Z,48573.66
2023-04-08T02:12:15.337Z,48573.66
2023-04-08T02:14:41.865Z,48565.81
2023-04-08T02:17:12.513Z,48569.72
2023-04-08T02:19:48.692Z,48561.91
2023-04-08T02:22:26.465Z,48597.16
2023-04-08T02:24:53.185Z,48557.97
2023-04-08T02:27:20.538Z,48573.66
2023-04-08T02:29:49.304Z,48583.44
2023-04-08T02:32:16.927Z,48573.66
2023-04-08T02:34:43.619Z,48561.91
2023-04-08T02:37:10.369Z,48595.19
2023-04-08T02:39:36.790Z,48571.69
2023-04-08T02:42:04.940Z,48591.28
2023-04-08T02:44:31.456Z,48561.91
2023-04-08T02:46:57.830Z,48589.31
2023-04-08T02:49:24.242Z,48567.78
2023-04-08T02:51:50.660Z,48556.03
2023-04-08T02:54:17.048Z,48581.50
2023-04-08T02:56:43.792Z,48605.00
2023-04-08T02:59:10.388Z,48585.41
2023-04-08T03:01:37.171Z,48581.50
2023-04-08T03:04:03.855Z,48577.56
2023-04-08T03:06:31.833Z,48581.50
2023-04-08T03:08:58.204Z,48569.72
2023-04-08T03:11:24.671Z,48573.66
2023-04-08T03:13:51.193Z,48556.03
2023-04-08T03:16:17.902Z,48573.66
2023-04-08T03:18:44.261Z,48569.72
2023-04-08T03:21:10.686Z,48569.72
2023-04-08T03:23:37.054Z,48589.31
2023-04-08T03:26:03.778Z,48556.03
2023-04-08T03:28:30.282Z,48585.41
2023-04-08T03:30:56.839Z,48573.66
2023-04-08T03:33:23.255Z,48579.53
2023-04-08T03:35:49.708Z,48593.25
2023-04-08T03:38:16.773Z,48577.56
2023-04-08T03:40:43.143Z,48573.66
2023-04-08T03:43:11.654Z,48565.81
2023-04-08T03:45:38.100Z,48567.78
2023-04-08T03:48:04.715Z,48557.97
2023-04-08T03:50:31.081Z,48573.66
2023-04-08T03:52:57.470Z,48585.41
2023-04-08T03:55:23.902Z,48593.25
2023-04-08T03:57:50.744Z,48589.31
2023-04-08T04:00:17.130Z,48569.72
2023-04-08T04:02:43.850Z,48577.56
2023-04-08T04:05:10.309Z,48573.66
2023-04-08T04:07:37.091Z,48593.25
2023-04-08T04:10:03.737Z,48565.81
2023-04-08T04:12:30.675Z,48579.53
2023-04-08T04:14:57.081Z,48567.78
2023-04-08T04:17:23.479Z,48565.81
2023-04-08T04:19:49.855Z,48561.91
2023-04-08T04:22:16.269Z,48561.91
2023-04-08T04:24:47.041Z,48589.31
2023-04-08T04:27:13.431Z,48569.72
2023-04-08T04:29:39.785Z,48573.66
2023-04-08T04:32:07.121Z,48569.72
2023-04-08T04:34:33.478Z,48561.91
2023-04-08T04:36:59.855Z,48589.31
2023-04-08T04:39:26.378Z,48561.91
2023-04-08T04:41:52.763Z,48556.03
2023-04-08T04:44:19.724Z,48597.16
2023-04-08T04:46:46.233Z,48554.06
2023-04-08T04:49:12.691Z,48550.16
2023-04-08T04:51:39.068Z,48579.53
2023-04-08T04:54:05.485Z,48565.81
2023-04-08T04:56:32.080Z,48571.69
2023-04-08T04:58:58.483Z,48550.16
2023-04-08T05:01:24.921Z,48573.66
2023-04-08T05:03:51.823Z,48565.81
2023-04-08T05:06:18.199Z,48565.81
2023-04-08T05:08:45.042Z,48585.41
2023-04-08T05:11:11.581Z,48563.84
2023-04-08T05:13:38.307Z,48583.44
2023-04-08T05:16:04.911Z,48575.63
2023-04-08T05:18:31.321Z,48591.28
2023-04-08T05:20:58.603Z,48565.81
2023-04-08T05:23:25.488Z,48573.66
2023-04-08T05:25:51.938Z,48601.06
2023-04-08T05:28:18.840Z,48573.66
2023-04-08T05:30:52.148Z,48571.69
2023-04-08T05:33:19.564Z,48569.72
2023-04-08T05:35:46.667Z,48567.78
2023-04-08T05:38:13.275Z,48565.81
2023-04-08T05:40:39.695Z,48565.81
2023-04-08T05:43:06.344Z,48561.91
2023-04-08T05:45:32.741Z,48563.84
2023-04-08T05:47:59.577Z,48554.06
2023-04-08T05:50:25.984Z,48567.78
2023-04-08T05:52:52.950Z,48556.03
2023-04-08T05:55:19.357Z,48585.41
2023-04-08T05:57:45.928Z,48554.06
2023-04-08T06:00:13.192Z,48577.56
2023-04-08T06:02:39.738Z,48589.31
2023-04-08T06:05:06.653Z,48585.41
2023-04-08T06:07:33.996Z,48620.66
2023-04-08T06:10:00.557Z,48655.94
2023-04-08T06:12:26.921Z,48673.56
2023-04-08T06:14:56.523Z,48702.94
2023-04-08T06:17:23.144Z,48767.59
2023-04-08T06:19:49.746Z,48879.25
2023-04-08T06:22:16.388Z,48879.25
2023-04-08T06:24:42.781Z,48873.38
2023-04-08T06:27:09.328Z,48883.16
2023-04-08T06:29:35.898Z,48883.16
2023-04-08T06:32:02.443Z,48892.97
2023-04-08T06:34:29.161Z,48904.72
2023-04-08T06:36:55.811Z,48892.97
2023-04-08T06:39:22.245Z,48887.09
2023-04-08T06:41:48.702Z,48891.00
2023-04-08T06:44:16.043Z,48887.09
2023-04-08T06:46:42.431Z,48879.25
2023-04-08T06:49:08.985Z,48898.84
2023-04-08T06:51:35.460Z,48902.75
2023-04-08T06:54:01.964Z,48891.00
2023-04-08T06:56:28.377Z,48900.78
2023-04-08T06:58:54.848Z,48900.78
2023-04-08T07:01:21.343Z,48887.09
2023-04-08T07:03:47.908Z,48883.16
2023-04-08T07:06:14.513Z,48877.28
2023-04-08T07:08:41.182Z,48887.09
2023-04-08T07:11:07.791Z,48889.03
2023-04-08T07:13:34.313Z,48891.00
2023-04-08T07:16:01.767Z,48887.09
2023-04-08T07:18:28.189Z,48898.84
2023-04-08T07:20:55.044Z,48885.13
2023-04-08T07:23:21.745Z,48887.09
2023-04-08T07:25:48.266Z,48892.97
2023-04-08T07:28:14.730Z,48883.16
2023-04-08T07:30:41.146Z,48898.84
2023-04-08T07:33:07.632Z,48887.09
2023-04-08T07:35:34.375Z,48879.25
2023-04-08T07:38:01.054Z,48887.09
2023-04-08T07:40:27.578Z,48891.00
2023-04-08T07:42:54.299Z,48881.22
2023-04-08T07:45:21.125Z,48887.09
2023-04-08T07:47:47.654Z,48873.38
2023-04-08T07:50:14.147Z,48871.41
2023-04-08T07:52:40.536Z,48885.13
2023-04-08T07:55:07.411Z,48867.50
2023-04-08T07:57:33.924Z,48883.16
2023-04-08T08:00:00.393Z,48887.09
2023-04-08T08:02:26.926Z,48871.41
2023-04-08T08:04:53.463Z,48871.41
2023-04-08T08:07:19.870Z,48867.50
2023-04-08T08:09:46.548Z,48885.13
2023-04-08T08:12:12.961Z,48867.50
2023-04-08T08:14:39.673Z,48875.34
2023-04-08T08:17:06.040Z,48871.41
2023-04-08T08:19:32.860Z,48879.25
2023-04-08T08:21:59.250Z,48867.50
2023-04-08T08:24:26.220Z,48871.41
2023-04-08T08:26:52.619Z,48875.34
2023-04-08T08:29:19.491Z,48871.41
2023-04-08T08:31:46.240Z,48867.50
2023-04-08T08:34:12.788Z,48883.16
2023-04-08T08:36:39.178Z,48871.41
2023-04-08T08:39:05.601Z,48891.00
2023-04-08T08:41:36.831Z,48871.41
2023-04-08T08:44:05.761Z,48881.22
2023-04-08T08:46:32.342Z,48867.50
2023-04-08T08:48:59.058Z,48871.41
2023-04-08T08:51:26.253Z,48871.41
2023-04-08T08:53:52.796Z,48887.09
2023-04-08T08:56:19.389Z,48859.66
2023-04-08T08:58:47.541Z,48871.41
2023-04-08T09:01:46.695Z,48863.56
2023-04-08T09:04:22.621Z,48871.41
2023-04-08T09:06:51.572Z,48869.44
2023-04-08T09:09:18.240Z,48885.13
2023-04-08T09:11:47.137Z,48891.00
2023-04-08T09:14:22.864Z,48881.22
2023-04-08T09:16:50.252Z,48873.38
2023-04-08T09:19:16.980Z,48891.00
2023-04-08T09:21:43.633Z,48887.09
2023-04-08T09:24:28.754Z,48881.22
2023-04-08T09:26:56.522Z,48871.41
2023-04-08T09:29:29.877Z,48885.13
2023-04-08T09:32:00.196Z,48871.41
2023-04-08T09:34:28.049Z,48898.84
2023-04-08T09:36:55.724Z,48887.09
2023-04-08T09:39:22.574Z,48891.00
2023-04-08T09:41:50.982Z,48873.38
2023-04-08T09:44:19.884Z,48883.16
2023-04-08T09:46:49.215Z,48887.09
2023-04-08T09:49:52.150Z,48883.16
2023-04-08T09:52:24.785Z,48883.16
2023-04-08T09:55:04.594Z,48883.16
2023-04-08T09:57:41.609Z,48867.50
2023-04-08T10:00:14.062Z,48894.91
2023-04-08T10:03:04.732Z,48879.25
2023-04-08T10:05:31.975Z,48873.38
2023-04-08T10:07:58.964Z,48885.13
2023-04-08T10:10:27.075Z,48869.44
2023-04-08T10:12:53.778Z,48879.25
2023-04-08T10:15:37.775Z,48869.44
2023-04-08T10:18:06.928Z,48881.22
2023-04-08T10:20:37.135Z,48883.16
2023-04-08T10:23:11.480Z,48879.25
2023-04-08T10:25:45.481Z,48883.16
2023-04-08T10:28:12.006Z,48883.16
2023-04-08T10:30:42.780Z,48883.16
2023-04-08T10:33:15.531Z,48883.16
2023-04-08T10:35:46.266Z,48879.25
2023-04-08T10:38:14.095Z,48887.09
2023-04-08T10:40:42.558Z,48889.03
2023-04-08T10:43:11.218Z,48871.41
2023-04-08T10:45:38.369Z,48883.16
2023-04-08T10:48:25.169Z,48883.16
2023-04-08T10:51:03.650Z,48881.22
2023-04-08T10:53:33.779Z,48894.91
2023-04-08T10:56:15.417Z,48892.97
2023-04-08T10:58:59.187Z,48883.16
2023-04-08T11:01:26.483Z,48894.91
2023-04-08T11:03:53.916Z,48875.34
2023-04-08T11:06:20.540Z,48892.97
2023-04-08T11:08:47.247Z,48891.00
2023-04-08T11:11:14.673Z,48883.16
2023-04-08T11:13:51.177Z,48889.03
2023-04-08T11:16:21.393Z,48887.09
2023-04-08T11:18:49.734Z,48887.09
2023-04-08T11:21:17.556Z,48887.09
2023-04-08T11:23:43.999Z,48891.00
2023-04-08T11:26:11.359Z,48871.41
2023-04-08T11:28:39.325Z,48898.84
2023-04-08T11:31:06.205Z,48894.91
2023-04-08T11:33:33.117Z,48892.97
2023-04-08T11:36:02.200Z,48902.75
2023-04-08T11:38:29.246Z,48887.09
2023-04-08T11:40:58.922Z,48887.09
2023-04-08T11:43:30.160Z,48902.75
2023-04-08T11:45:59.933Z,48900.78
2023-04-08T11:48:26.790Z,48894.91
2023-04-08T11:51:04.578Z,48902.75
2023-04-08T11:53:31.438Z,48894.91
2023-04-08T11:55:57.880Z,48902.75
2023-04-08T11:58:24.324Z,48906.69
2023-04-08T12:00:50.850Z,48894.91
2023-04-08T12:03:17.937Z,48887.09
2023-04-08T12:05:44.422Z,48881.22
2023-04-08T12:08:11.261Z,48894.91
2023-04-08T12:10:37.814Z,48906.69
2023-04-08T12:13:04.192Z,48894.91
2023-04-08T12:15:30.739Z,48896.88
2023-04-08T12:17:57.895Z,48891.00
2023-04-08T12:20:24.457Z,48918.44
2023-04-08T12:22:50.990Z,48891.00
2023-04-08T12:25:17.377Z,48914.50
2023-04-08T12:27:43.780Z,48891.00
2023-04-08T12:30:10.778Z,48914.50
2023-04-08T12:32:37.518Z,48887.09
2023-04-08T12:35:04.297Z,48902.75
2023-04-08T12:37:30.812Z,48883.16
2023-04-08T12:39:57.220Z,48871.41
2023-04-08T12:42:23.804Z,48896.88
2023-04-08T12:44:50.227Z,48906.69
2023-04-08T12:47:17.312Z,48891.00
2023-04-08T12:49:49.549Z,48908.63
2023-04-08T12:52:17.168Z,48898.84
2023-04-08T12:54:43.866Z,48898.84
2023-04-08T12:57:10.513Z,48894.91
2023-04-08T12:59:38.805Z,48894.91
2023-04-08T13:02:05.363Z,48906.69
2023-04-08T13:04:31.807Z,48891.00
2023-04-08T13:06:59.529Z,48898.84
2023-04-08T13:09:26.445Z,48918.44
2023-04-08T13:11:52.965Z,48898.84
2023-04-08T13:14:19.394Z,48902.75
2023-04-08T13:16:46.265Z,48922.34
2023-04-08T13:19:13.173Z,48891.00
2023-04-08T13:21:39.542Z,48887.09
2023-04-08T13:24:06.401Z,48894.91
2023-04-08T13:26:32.784Z,48904.72
2023-04-08T13:28:59.586Z,48914.50
2023-04-08T13:31:26.488Z,48914.50
2023-04-08T13:33:55.270Z,48891.00
2023-04-08T13:36:23.530Z,48891.00
2023-04-08T13:38:50.898Z,48891.00
2023-04-08T13:41:17.520Z,48910.59
2023-04-08T13:43:43.938Z,48891.00
2023-04-08T13:46:10.365Z,48916.47
2023-04-08T13:48:37.151Z,48902.75
2023-04-08T13:51:03.684Z,48894.91
2023-04-08T13:53:30.451Z,48898.84
2023-04-08T13:55:58.925Z,48918.44
2023-04-08T13:58:26.484Z,48902.75
2023-04-08T14:00:53.141Z,48914.50
2023-04-08T14:03:19.625Z,48900.78
2023-04-08T14:05:46.710Z,48906.69
2023-04-08T14:08:13.880Z,48920.38
2023-04-08T14:10:41.978Z,48918.44
2023-04-08T14:13:08.818Z,48910.59
2023-04-08T14:15:35.443Z,48891.00
2023-04-08T14:18:01.934Z,48847.91
2023-04-08T14:20:28.576Z,48840.06
2023-04-08T14:22:56.588Z,48853.78
2023-04-08T14:25:23.717Z,48838.09
2023-04-08T14:27:58.091Z,48814.59
2023-04-08T14:30:25.244Z,48808.72
2023-04-08T14:32:51.672Z,48781.31
2023-04-08T14:35:18.438Z,48791.09
2023-04-08T14:37:44.819Z,48785.22
2023-04-08T14:40:11.615Z,48800.88
2023-04-08T14:42:38.474Z,48742.13
2023-04-08T14:45:05.200Z,48765.63
2023-04-08T14:47:31.636Z,48744.06
2023-04-08T14:49:58.067Z,48738.19
2023-04-08T14:52:24.866Z,48712.72
2023-04-08T14:54:52.448Z,48734.28
2023-04-08T14:57:18.854Z,48714.69
2023-04-08T14:59:45.792Z,48706.84
2023-04-08T15:02:12.542Z,48695.09
2023-04-08T15:04:39.420Z,48695.09
2023-04-08T15:07:06.238Z,48695.09
2023-04-08T15:09:32.718Z,48699.03
2023-04-08T15:11:59.914Z,48702.94
2023-04-08T15:14:26.448Z,48702.94
2023-04-08T15:16:52.993Z,48683.34
2023-04-08T15:19:20.184Z,48687.28
2023-04-08T15:21:47.337Z,48671.59
2023-04-08T15:24:14.027Z,48691.19
2023-04-08T15:26:41.005Z,48700.97
2023-04-08T15:29:07.736Z,48691.19
2023-04-08T15:31:35.015Z,48722.53
2023-04-08T15:34:02.698Z,48695.09
2023-04-08T15:36:32.860Z,48704.91
2023-04-08T15:38:59.267Z,48693.16
2023-04-08T15:41:26.216Z,48683.34
2023-04-08T15:43:53.188Z,48700.97
2023-04-08T15:46:23.267Z,48702.94
2023-04-08T15:48:50.702Z,48706.84
2023-04-08T15:51:17.920Z,48671.59
2023-04-08T15:53:44.376Z,48704.91
2023-04-08T15:56:15.207Z,48695.09
2023-04-08T15:58:42.424Z,48691.19
2023-04-08T16:01:08.849Z,48699.03
2023-04-08T16:03:35.378Z,48706.84
2023-04-08T16:06:02.045Z,48687.28
2023-04-08T16:08:29.006Z,48718.59
2023-04-08T16:11:03.685Z,48695.09
2023-04-08T16:13:30.955Z,48714.69
2023-04-08T16:15:58.605Z,48734.28
2023-04-08T16:18:25.840Z,48722.53
2023-04-08T16:20:53.202Z,48746.03
2023-04-08T16:23:19.904Z,48714.69
2023-04-08T16:25:46.658Z,48722.53
2023-04-08T16:28:13.389Z,48718.59
2023-04-08T16:30:43.491Z,48706.84
2023-04-08T16:33:11.245Z,48726.44
2023-04-08T16:35:37.775Z,48724.50
2023-04-08T16:38:04.604Z,48700.97
2023-04-08T16:40:33.166Z,48755.84
2023-04-08T16:43:00.761Z,48720.56
2023-04-08T16:45:30.916Z,48706.84
2023-04-08T16:47:57.478Z,48702.94
2023-04-08T16:50:24.437Z,48695.09
2023-04-08T16:52:50.831Z,48710.78
2023-04-08T16:55:17.891Z,48722.53
2023-04-08T16:57:44.280Z,48706.84
2023-04-08T17:00:11.338Z,48699.03
2023-04-08T17:02:37.904Z,48724.50
2023-04-08T17:05:06.254Z,48730.38
2023-04-08T17:07:32.884Z,48704.91
2023-04-08T17:09:59.407Z,48710.78
2023-04-08T17:12:25.974Z,48724.50
2023-04-08T17:14:52.606Z,48704.91
2023-04-08T17:17:19.329Z,48687.28
2023-04-08T17:19:45.686Z,48699.03
2023-04-08T17:22:12.077Z,48718.59
2023-04-08T17:24:38.460Z,48706.84
2023-04-08T17:27:05.477Z,48714.69
2023-04-08T17:29:31.941Z,48671.59
2023-04-08T17:31:58.574Z,48753.88
2023-04-08T17:34:26.291Z,48706.84
2023-04-08T17:36:52.723Z,48699.03
2023-04-08T17:39:19.107Z,48757.78
2023-04-08T17:41:46.184Z,48746.03
2023-04-08T17:44:12.659Z,48730.38
2023-04-08T17:46:39.211Z,48702.94
2023-04-08T17:49:05.652Z,48708.81
2023-04-08T17:51:33.157Z,48677.47
2023-04-08T17:53:59.627Z,48675.50
2023-04-08T17:56:27.760Z,48691.19
2023-04-08T17:58:54.226Z,48706.84
2023-04-08T18:01:22.909Z,48671.59
2023-04-08T18:03:52.319Z,48695.09
2023-04-08T18:06:19.337Z,48702.94
2023-04-08T18:08:45.846Z,48695.09
2023-04-08T18:11:12.283Z,48648.09
2023-04-08T18:13:38.685Z,48697.06
2023-04-08T18:16:06.545Z,48661.81
2023-04-08T18:18:32.907Z,48661.81
2023-04-08T18:20:59.837Z,48671.59
2023-04-08T18:23:26.212Z,48710.78
2023-04-08T18:25:52.588Z,48679.44
2023-04-08T18:28:19.010Z,48687.28
2023-04-08T18:30:45.646Z,48687.28
2023-04-08T18:33:12.087Z,48683.34
2023-04-08T18:35:38.484Z,48708.81
2023-04-08T18:38:05.245Z,48695.09
2023-04-08T18:40:31.648Z,48679.44
2023-04-08T18:43:02.593Z,48695.09
2023-04-08T18:45:29.464Z,48706.84
2023-04-08T18:47:56.273Z,48675.50
2023-04-08T18:50:23.352Z,48702.94
2023-04-08T18:52:50.068Z,48689.22
2023-04-08T18:55:16.675Z,48687.28
2023-04-08T18:57:43.121Z,48675.50
2023-04-08T19:00:09.716Z,48679.44
2023-04-08T19:02:36.471Z,48706.84
2023-04-08T19:05:02.992Z,48699.03
2023-04-08T19:07:29.747Z,48679.44
2023-04-08T19:09:59.700Z,48675.50
2023-04-08T19:12:27.010Z,48671.59
2023-04-08T19:14:54.238Z,48661.81
2023-04-08T19:17:20.849Z,48687.28
2023-04-08T19:19:47.290Z,48671.59
2023-04-08T19:22:13.698Z,48671.59
2023-04-08T19:24:40.166Z,48687.28
2023-04-08T19:27:06.549Z,48648.09
2023-04-08T19:29:33.968Z,48699.03
2023-04-08T19:32:00.828Z,48695.09
2023-04-08T19:34:27.213Z,48679.44
2023-04-08T19:36:54.516Z,48691.19
2023-04-08T19:39:21.052Z,48702.94
2023-04-08T19:41:47.647Z,48702.94
2023-04-08T19:44:14.104Z,48706.84
2023-04-08T19:46:40.709Z,48699.03
2023-04-08T19:49:07.412Z,48702.94
2023-04-08T19:51:34.159Z,48720.56
2023-04-08T19:54:00.597Z,48718.59
2023-04-08T19:56:27.824Z,48706.84
2023-04-08T19:58:54.383Z,48726.44
2023-04-08T20:01:21.503Z,48706.84
2023-04-08T20:03:50.244Z,48706.84
2023-04-08T20:06:19.898Z,48734.28
2023-04-08T20:08:46.409Z,48742.13
2023-04-08T20:11:12.951Z,48757.78
2023-04-08T20:13:40.030Z,48746.03
2023-04-08T20:16:07.407Z,48687.28
2023-04-08T20:18:34.251Z,48706.84
2023-04-08T20:21:00.998Z,48706.84
2023-04-08T20:23:27.388Z,48722.53
2023-04-08T20:25:53.899Z,48726.44
2023-04-08T20:28:20.717Z,48726.44
2023-04-08T20:30:47.998Z,48734.28
2023-04-08T20:33:14.398Z,48724.50
2023-04-08T20:35:40.879Z,48712.72
2023-04-08T20:38:07.276Z,48716.66
2023-04-08T20:40:33.650Z,48730.38
2023-04-08T20:43:00.039Z,48718.59
2023-04-08T20:45:27.131Z,48742.13
2023-04-08T20:47:54.528Z,48734.28
2023-04-08T20:50:20.919Z,48691.19
2023-04-08T20:52:47.836Z,48742.13
2023-04-08T20:55:14.303Z,48730.38
2023-04-08T20:57:42.095Z,48753.88
2023-04-08T21:00:09.492Z,48742.13
2023-04-08T21:02:36.809Z,48740.16
2023-04-08T21:05:03.513Z,48746.03
2023-04-08T21:07:30.470Z,48702.94
2023-04-08T21:09:56.967Z,48742.13
2023-04-08T21:12:23.676Z,48755.84
2023-04-08T21:14:50.872Z,48759.75
2023-04-08T21:17:17.841Z,48757.78
2023-04-08T21:19:44.325Z,48765.63
2023-04-08T21:22:10.892Z,48781.31
2023-04-08T21:24:38.060Z,48753.88
2023-04-08T21:27:04.521Z,48777.38
2023-04-08T21:29:31.001Z,48775.41
2023-04-08T21:31:57.452Z,48785.22
2023-04-08T21:34:23.967Z,48769.53
2023-04-08T21:36:50.360Z,48753.88
2023-04-08T21:39:16.867Z,48800.88
2023-04-08T21:41:43.410Z,48789.13
2023-04-08T21:44:10.421Z,48793.06
2023-04-08T21:46:36.857Z,48804.81
2023-04-08T21:49:03.424Z,48812.63
2023-04-08T21:51:29.813Z,48763.66
2023-04-08T21:53:56.252Z,48814.59
2023-04-08T21:56:24.516Z,48749.94
2023-04-08T21:58:51.061Z,48808.72
2023-04-08T22:01:17.746Z,48796.97
2023-04-08T22:03:44.963Z,48793.06
2023-04-08T22:06:19.221Z,48773.47
2023-04-08T22:08:52.251Z,48773.47
2023-04-08T22:11:19.062Z,48775.41
2023-04-08T22:13:45.837Z,48804.81
2023-04-08T22:16:12.256Z,48783.25
2023-04-08T22:18:39.003Z,48832.22
2023-04-08T22:21:05.985Z,48785.22
2023-04-08T22:23:32.412Z,48785.22
2023-04-08T22:25:58.831Z,48814.59
2023-04-08T22:28:25.531Z,48812.63
2023-04-08T22:30:54.883Z,48796.97
2023-04-08T22:33:22.106Z,48816.56
2023-04-08T22:35:48.525Z,48781.31
2023-04-08T22:38:14.923Z,48808.72
2023-04-08T22:40:41.314Z,48836.16
2023-04-08T22:43:08.002Z,48840.06
2023-04-08T22:45:36.603Z,48861.63
2023-04-08T22:48:03.289Z,48796.97
2023-04-08T22:50:29.718Z,48828.31
2023-04-08T22:52:56.097Z,48808.72
2023-04-08T22:55:22.473Z,48836.16
2023-04-08T22:57:49.341Z,48830.28
2023-04-08T23:00:15.991Z,48816.56
2023-04-08T23:02:42.779Z,48836.16
2023-04-08T23:05:09.587Z,48828.31
2023-04-08T23:07:36.321Z,48812.63
2023-04-08T23:10:02.703Z,48812.63
2023-04-08T23:12:29.163Z,48840.06
2023-04-08T23:14:55.618Z,48857.69
2023-04-08T23:17:22.043Z,48863.56
2023-04-08T23:19:48.455Z,48867.50
2023-04-08T23:22:14.825Z,48863.56
2023-04-08T23:24:41.288Z,48871.41
2023-04-08T23:27:07.721Z,48855.75
2023-04-08T23:29:34.336Z,48902.75
2023-04-08T23:32:00.744Z,48871.41
2023-04-08T23:34:27.314Z,48889.03
2023-04-08T23:36:53.707Z,48859.66
2023-04-08T23:39:20.304Z,48863.56
2023-04-08T23:41:46.724Z,48871.41
2023-04-08T23:44:13.132Z,48844.00
2023-04-08T23:46:39.529Z,48855.75
2023-04-08T23:49:06.252Z,48863.56
2023-04-08T23:51:32.623Z,48861.63
2023-04-08T23:53:59.343Z,48855.75
2023-04-08T23:56:25.873Z,48859.66
2023-04-08T23:58:52.383Z,48845.94
